Aviation Digital Data Service (ADDS)

Output produced by METARs form (0734 UTC 24 March 2019)
found at http://www.aviationweather.gov/metar/data/
 
KIYA 240710Z AUTO 00000KT 7SM CLR 11/11 A3016 RMK AO2 T01070107
KAEX 240653Z 14007KT 10SM BKN090 13/09 A3015 RMK AO2 SLP212 T01330094 $
KAEX 240520Z 2406/2506 18005KT P6SM FEW090 
     TEMPO 2410/2414 4SM BR SCT025 
     FM241500 18009KT P6SM SCT040 SCT110 BKN250 
     FM250000 18007KT P6SM BKN050
       
KESF 240653Z AUTO 00000KT 10SM OVC090 12/10 A3016 RMK AO2 SLP213 T01220100
KBQP 240715Z AUTO 20006KT 10SM OVC110 17/07 A3015 RMK AO2 T01720072
KBTR 240732Z AUTO 04003KT 1 3/4SM BR CLR 11/08 A3017 RMK AO2 T01060083
KBTR 240533Z 2406/2506 VRB03KT P6SM SCT250 
     FM241900 18007KT P6SM SCT130 
     FM250500 VRB03KT P6SM FEW250
       
KBXA 240715Z AUTO 00000KT 10SM CLR 08/06 A3018 RMK AO2 T00800063
K5R8 240715Z AUTO 00000KT 10SM CLR 13/12 A3014 RMK AO2 T01290116
KDRI 240715Z AUTO 13004KT 10SM OVC085 15/12 A3015 RMK AO2 T01450119
KGAO 240715Z AUTO 00000KT 1/4SM HZ VV002 09/03 A3017 RMK AO2 T00900034
KHDC 240715Z AUTO 00000KT 10SM CLR 08/07 A3018 RMK AO2
KHDC 240533Z 2406/2506 00000KT P6SM SKC 
     FM241700 17005KT P6SM FEW250 
     FM250000 VRB04KT P6SM FEW150
       
KHUM 240715Z AUTO 00000KT 7SM CLR 11/11 A3017 RMK AO2 T01100105
KHUM 240533Z 2406/2506 VRB03KT P6SM FEW250 
     FM241600 15005KT P6SM FEW250 
     FM242100 18007KT P6SM FEW250
       
K3R7 240715Z AUTO 11005KT 10SM CLR 14/12 A3016 RMK AO2 T01350119
KLFT 240653Z AUTO 00000KT 10SM CLR 13/12 A3016 RMK AO2 SLP212 T01330117
KLFT 240520Z 2406/2506 18004KT P6SM SCT250 
     FM240900 VRB03KT 4SM BR SCT003 
     TEMPO 2410/2414 1SM BR BKN003 
     FM241400 18006KT P6SM SCT015 BKN250 
     FM250000 19005KT P6SM BKN250
       
KCWF 240715Z 09004KT 10SM SCT080 13/12 A3015 RMK AO2 T01300125 PWINO
KLCH 240653Z AUTO 14003KT 9SM CLR 13/12 A3015 RMK AO2 SLP216 T01330117
KLCH 240520Z 2406/2506 16009KT P6SM FEW110 SCT250 
     TEMPO 2410/2414 4SM BR SCT025 
     FM241400 16009KT P6SM BKN250 
     FM241900 19011KT P6SM BKN035
       
K3F3 240715Z AUTO 18008G14KT 10SM SCT080 OVC110 17/12 A3015 RMK AO2 T01700118
KMNE 240715Z AUTO 17007KT 10SM BKN080 18/10 A3011 RMK AO2 T01800101
KMLU 240653Z AUTO 17007KT 10SM BKN110 17/08 A3014 RMK AO2 SLP205 T01720083
KMLU 240532Z 2406/2506 18004KT P6SM BKN090 OVC250 
     TEMPO 2406/2409 18010KT SCT250 
     FM241500 19006KT P6SM BKN060 
     FM241800 20008KT P6SM BKN045 
     FM250000 19004KT P6SM BKN045
       
KIER 240715Z AUTO 17003KT 10SM OVC095 16/11 A3014 RMK AO2 T01590106
KARA 240653Z AUTO 12005KT 10SM CLR 12/11 A3016 RMK AO2 SLP213 T01170106
KARA 240520Z 2406/2506 17003KT P6SM FEW110 SCT250 
     FM240900 VRB03KT 4SM BR SCT003 
     TEMPO 2410/2414 1SM BR BKN003 
     FM241400 18006KT P6SM SCT015 
     FM250000 19005KT P6SM BKN250
       
KNEW 240653Z 13004KT 9SM CLR 14/12 A3018 RMK AO2 SLP212 T01440117
KNEW 240533Z 2406/2506 VRB04KT P6SM SKC 
     FM242300 16005KT P6SM FEW200 
     FM250400 VRB04KT P6SM SKC
       
KMSY 240653Z 17003KT 10SM CLR 14/10 A3017 RMK AO2 SLP220 T01390100
KMSY 240533Z 2406/2512 VRB03KT P6SM SKC 
     FM241800 17005KT P6SM FEW250 
     FM242300 VRB04KT P6SM FEW200
       
KHZR 240715Z AUTO 00000KT 10SM CLR 10/08 A3018 RMK AO2
KACP 240715Z AUTO 00000KT 10SM BKN090 08/08 A3017 RMK AO2 T00840076
KOPL 240715Z AUTO 00000KT 10SM SCT090 12/09 A3017 RMK AO2 T01210092
KPTN 240656Z AUTO 14004KT 10SM CLR 13/13 A3016 RMK AO2 SLP215 T01330128
KRSN 240715Z AUTO 00000KT 10SM OVC100 17/07 A3017 RMK AO2 T01710067
KDTN 240653Z AUTO 18009KT 10SM SCT080 18/11 A3010 RMK AO2 SLP189 T01830106
KSHV 240656Z 18007KT 10SM BKN100 OVC270 17/11 A3009 RMK AO2 SLP188 T01720106
KSHV 240532Z 2406/2506 19008KT P6SM BKN070 
     TEMPO 2406/2409 19012G18KT SCT100 OVC250 
     FM241300 18007KT P6SM BKN023 
     FM241800 20010KT P6SM BKN030 
     FM242000 20010KT P6SM BKN035 
     FM250000 19007KT P6SM BKN040
       
KASD 240731Z AUTO 00000KT 10SM BKN002 08/06 A3017 RMK AO2 T00780056
KASD 240533Z 2406/2506 00000KT P6SM SKC 
     TEMPO 2411/2413 1/2SM FG 
     FM241300 VRB04KT P6SM FEW250
       
KUXL 240715Z AUTO 11004KT 10SM CLR 16/14 A3014 RMK AO2 T01550143
KTVR 240653Z AUTO 18003KT 10SM CLR 13/08 A3017 RMK AO2 SLP224 T01280078
K0R4 240715Z AUTO 10003KT 10SM CLR 12/08 A3017 RMK AO2 T01150081